FYRU

Rundu Airport

Rundu, Namibia
TAF FYRU 171400Z 1715/1800 27004KT CAVOK BECMG 1716/1718 08005KT
Issued Valid From Valid To
Aug-17 @ 14:00 UTC
(56 minutes ago)
Aug-17 @ 15:00 UTC
(in 4 minutes)
Aug-18 @ 00:00 UTC
(in 9 hours)
Aug-17 @ 15:00 to Aug-17 @ 16:00
TAF FYRU 171400Z 1715/1800 27004KT CAVOK
Wind Visibility Clouds Conditions
270° at 4 knots 10,000+ meters
  • No significant clouds
Becoming Aug-17 @ 16:00 to Aug-18 @ 00:00
BECMG 1716/1718 08005KT
Wind Visibility Clouds Conditions
80° at 5 knots 10,000+ meters
  • No significant clouds
TAF FYRU 171400Z 1715/1800 27004KT CAVOK BECMG 1716/1718 08005KT
Issued Aug-17 @ 14:00 UTC
(56 minutes ago)
Valid From Aug-17 @ 15:00 UTC
(in 4 minutes)
Valid To Aug-18 @ 00:00 UTC
(in 9 hours)
Aug-17 @ 15:00 - Aug-17 @ 16:00
Wind Visibility
270° at 4 knots 10,000+ meters
Clouds
  • No significant clouds
Conditions
Becoming Aug-17 @ 16:00 - Aug-18 @ 00:00
Wind Visibility
80° at 5 knots 10,000+ meters
Clouds
  • No significant clouds
Conditions